createdAt,value
2018-08-20T04:25:07.037Z,63.70
2018-08-20T05:01:22.149Z,63.80
2018-08-20T09:38:46.383Z,55.80
2018-08-20T09:41:21.522Z,54.60
2018-08-20T09:43:56.617Z,53.60
2018-08-20T09:46:24.749Z,52.40
2018-08-20T09:48:53.034Z,51.50
2018-08-20T09:51:21.306Z,50.40
2018-08-20T09:53:49.568Z,49.70
2018-08-20T09:56:17.779Z,49.70
2018-08-20T09:58:46.033Z,49.20
2018-08-20T10:01:14.194Z,48.90
2018-08-20T10:03:46.833Z,49.40
2018-08-20T10:06:15.925Z,50.10
2018-08-20T10:08:44.309Z,50.50
2018-08-20T10:11:13.583Z,51.00
2018-08-20T10:13:41.777Z,51.30
2018-08-20T10:16:10.984Z,51.70
2018-08-20T10:18:39.815Z,51.60
2018-08-20T10:21:08.270Z,51.90
2018-08-20T10:23:36.681Z,52.30
2018-08-20T10:26:06.529Z,52.90
2018-08-20T10:28:34.950Z,52.70
2018-08-20T10:31:03.199Z,53.40
2018-08-20T10:33:31.601Z,53.60
2018-08-20T10:36:00.382Z,53.60
2018-08-20T10:38:30.323Z,53.20
2018-08-20T10:40:58.914Z,53.40
2018-08-20T10:43:27.278Z,53.40
2018-08-20T10:46:01.526Z,53.50
2018-08-20T10:48:29.923Z,53.80
2018-08-20T10:50:58.671Z,54.20
2018-08-20T10:53:27.508Z,54.10
2018-08-20T10:55:55.996Z,54.10
2018-08-20T10:58:24.373Z,54.20
2018-08-20T11:00:53.145Z,54.30
2018-08-20T11:03:23.450Z,54.70
2018-08-20T11:05:51.875Z,54.60
2018-08-20T11:08:20.342Z,54.70
2018-08-20T11:10:49.324Z,54.80
2018-08-20T11:13:17.705Z,54.30
2018-08-20T11:15:46.389Z,53.80
2018-08-20T11:18:14.871Z,53.50
2018-08-20T11:20:43.359Z,53.80
2018-08-20T11:23:11.666Z,53.00
2018-08-20T11:25:40.010Z,52.60
2018-08-20T11:28:08.386Z,52.60
2018-08-20T11:30:36.809Z,52.20
2018-08-20T11:33:05.261Z,52.10
2018-08-20T11:35:33.659Z,52.10
2018-08-20T11:38:02.043Z,52.00
2018-08-20T11:40:30.446Z,51.90
2018-08-20T11:42:58.788Z,51.70
2018-08-20T11:45:27.601Z,51.50
2018-08-20T11:47:56.418Z,51.50
2018-08-20T11:50:24.813Z,51.10
2018-08-20T11:52:53.170Z,51.40
2018-08-20T11:55:21.582Z,51.40
2018-08-20T11:57:50.233Z,51.60
2018-08-20T12:00:18.575Z,51.30
2018-08-20T12:02:46.948Z,50.60
2018-08-20T12:05:15.315Z,50.40
2018-08-20T12:07:43.731Z,50.80
2018-08-20T12:10:11.848Z,50.30
2018-08-20T12:12:40.593Z,49.20
2018-08-20T12:15:10.631Z,49.20
2018-08-20T12:17:39.268Z,49.40
2018-08-20T12:20:08.835Z,50.00
2018-08-20T12:22:37.885Z,49.70
2018-08-20T12:25:07.347Z,49.50
2018-08-20T12:27:35.637Z,49.50
2018-08-20T12:30:04.002Z,49.60
2018-08-20T12:32:32.351Z,49.90
2018-08-20T12:35:00.573Z,49.50
2018-08-20T12:37:29.027Z,49.60
2018-08-20T12:39:57.645Z,49.50
2018-08-20T12:42:25.806Z,49.80
2018-08-20T12:44:54.097Z,49.80
2018-08-20T12:47:23.270Z,49.50
2018-08-20T12:49:51.553Z,49.50
2018-08-20T12:52:19.825Z,49.40
2018-08-20T12:54:48.123Z,49.50
2018-08-20T12:57:16.427Z,49.40
2018-08-20T12:59:44.688Z,49.30
2018-08-20T13:02:12.985Z,48.80
2018-08-20T13:04:41.312Z,48.60
2018-08-20T13:07:09.548Z,48.60
2018-08-20T13:09:37.834Z,48.60
2018-08-20T13:12:06.210Z,48.90
2018-08-20T13:14:34.481Z,48.80
2018-08-20T13:17:02.642Z,48.70
2018-08-20T13:19:30.793Z,48.50
2018-08-20T13:21:59.069Z,48.70
2018-08-20T13:24:27.670Z,48.30
2018-08-20T13:26:55.914Z,48.40
2018-08-20T13:29:24.193Z,48.50
2018-08-20T13:31:52.357Z,48.70
2018-08-20T13:34:20.676Z,48.60
2018-08-20T13:36:48.925Z,48.20
2018-08-20T13:39:17.613Z,48.40
2018-08-20T13:41:45.822Z,48.30
2018-08-20T13:44:14.122Z,47.90
2018-08-20T13:46:43.350Z,48.10
2018-08-20T13:49:11.817Z,48.00
2018-08-20T13:51:40.157Z,48.20
2018-08-20T13:54:09.365Z,47.70
2018-08-20T13:56:37.561Z,47.80
2018-08-20T13:59:05.890Z,47.90
2018-08-20T14:01:34.032Z,47.80
2018-08-20T14:04:02.224Z,47.70
2018-08-20T14:06:31.501Z,47.90
2018-08-20T14:08:59.700Z,47.40
2018-08-20T14:11:28.369Z,47.80
2018-08-20T14:13:56.632Z,47.50
2018-08-20T14:16:24.843Z,47.00
2018-08-20T14:18:53.050Z,46.80
2018-08-20T14:21:21.205Z,47.50
2018-08-20T14:23:49.921Z,46.60
2018-08-20T14:26:18.533Z,47.20
2018-08-20T14:28:47.547Z,47.00
2018-08-20T14:31:15.725Z,47.00
2018-08-20T14:33:43.855Z,46.70
2018-08-20T14:36:12.202Z,46.80
2018-08-20T14:38:40.757Z,46.70
2018-08-20T14:41:08.949Z,46.70
2018-08-20T14:43:37.460Z,46.90
2018-08-20T14:46:11.217Z,46.80
2018-08-20T14:48:39.416Z,46.90
2018-08-20T14:51:08.588Z,47.40
2018-08-20T14:53:36.711Z,47.20
2018-08-20T14:56:04.937Z,47.10
2018-08-20T14:58:45.428Z,47.00
2018-08-20T15:01:13.658Z,46.50
2018-08-20T15:03:41.989Z,46.90
2018-08-20T15:06:10.245Z,46.90
2018-08-20T15:08:39.649Z,46.10
2018-08-20T15:11:08.018Z,46.30
2018-08-20T15:13:36.579Z,46.50
2018-08-20T15:16:04.906Z,46.30
2018-08-20T15:18:33.104Z,46.70
2018-08-20T15:21:01.296Z,46.10
2018-08-20T15:23:29.486Z,46.50
2018-08-20T15:25:57.747Z,46.50
2018-08-20T15:28:26.614Z,46.50
2018-08-20T15:30:54.860Z,46.70
2018-08-20T15:33:23.041Z,46.90
2018-08-20T15:35:51.227Z,46.90
2018-08-20T15:38:19.400Z,46.90
2018-08-20T15:40:55.057Z,47.30
2018-08-20T15:43:23.290Z,47.60
2018-08-20T15:45:52.449Z,47.50
2018-08-20T15:48:20.677Z,47.70
2018-08-20T15:50:49.033Z,47.80
2018-08-20T15:53:17.530Z,47.80
2018-08-20T15:55:45.817Z,47.50
2018-08-20T15:58:14.337Z,47.50
2018-08-20T16:00:42.641Z,47.60
2018-08-20T16:03:10.823Z,47.90
2018-08-20T16:05:39.134Z,47.40
2018-08-20T16:08:07.446Z,47.40
2018-08-20T16:10:35.972Z,47.60
2018-08-20T16:13:04.399Z,48.00
2018-08-20T16:15:32.760Z,48.40
2018-08-20T16:18:01.259Z,48.50
2018-08-20T16:20:29.613Z,48.70
2018-08-20T16:22:57.927Z,48.50
2018-08-20T16:25:26.425Z,48.40
2018-08-20T16:27:59.806Z,48.70
2018-08-20T16:30:28.084Z,48.80
2018-08-20T16:32:56.385Z,49.20
2018-08-20T16:35:25.754Z,49.20
2018-08-20T16:37:53.968Z,49.30
2018-08-20T16:40:22.213Z,49.10
2018-08-20T16:42:50.580Z,49.40
2018-08-20T16:45:18.830Z,49.20
2018-08-20T16:47:47.063Z,49.60
2018-08-20T16:50:15.449Z,49.50
2018-08-20T16:52:43.821Z,49.60
2018-08-20T16:55:12.080Z,49.70
2018-08-20T16:57:40.607Z,50.10
2018-08-20T17:00:11.114Z,50.30
2018-08-20T17:02:40.384Z,50.60
2018-08-20T17:05:10.027Z,50.90
2018-08-20T17:07:38.252Z,50.90
2018-08-20T17:10:08.358Z,51.00
2018-08-20T17:12:36.878Z,51.20
2018-08-20T17:15:08.753Z,51.60
2018-08-20T17:17:37.061Z,51.60
2018-08-20T17:20:05.811Z,51.70
2018-08-20T17:22:34.072Z,52.00
2018-08-20T17:25:02.818Z,51.90
2018-08-20T17:27:31.257Z,52.10
2018-08-20T17:29:59.588Z,52.40
2018-08-20T17:32:27.963Z,52.60
2018-08-20T17:34:56.267Z,52.70
2018-08-20T17:37:24.714Z,52.90
2018-08-20T17:40:00.889Z,53.00
2018-08-20T17:42:30.449Z,53.10
2018-08-20T17:44:59.458Z,53.20
2018-08-20T17:47:28.454Z,53.20
2018-08-20T17:49:57.882Z,53.50
2018-08-20T17:52:38.898Z,53.60
2018-08-20T17:55:08.362Z,53.80
2018-08-20T17:57:36.795Z,54.00
2018-08-20T18:04:12.279Z,54.40
2018-08-20T18:06:56.557Z,54.80
2018-08-20T18:09:25.164Z,54.90
2018-08-20T18:11:55.453Z,55.00
2018-08-20T18:14:26.315Z,55.10
2018-08-20T18:16:54.855Z,55.30
2018-08-20T18:19:23.882Z,55.30
2018-08-20T18:21:58.256Z,55.30
2018-08-20T18:24:34.766Z,55.60
2018-08-20T18:27:03.647Z,55.70
2018-08-20T18:29:34.719Z,56.10
2018-08-20T18:32:04.418Z,56.10
2018-08-20T18:37:53.746Z,56.40
2018-08-20T18:40:28.166Z,56.30
2018-08-20T18:43:00.605Z,56.50
2018-08-20T18:48:33.106Z,56.70
2018-08-20T18:51:23.734Z,56.90
2018-08-20T19:03:41.130Z,57.80
